Time;durP1;ratioP1;P1;durP2;ratioP2;P2;SDS_P1;SDS_P2;PMS_P1;PMS_P2;Temp;Humidity;BMP_temperature;BMP_pressure;BME280_temperature;BME280_humidity;BME280_pressure;Samples;Min_cycle;Max_cycle;Signal;HPM_P1;HPM_P2
2021/09/03 00:01:30;;;;;;;18.87;5.85;;;;;;;9.03;77.73;99589.34;2232130;79;20980;-68
2021/09/03 00:04:32;;;;;;;22.52;7.20;;;;;;;8.93;77.82;99586.72;2231796;80;21043;-69
2021/09/03 00:07:33;;;;;;;26.25;8.30;;;;;;;8.87;77.94;99580.45;2232063;80;21039;-68
2021/09/03 00:10:35;;;;;;;23.73;8.35;;;;;;;8.87;77.91;99576.05;2232281;80;20988;-70
2021/09/03 00:13:36;;;;;;;20.92;5.30;;;;;;;8.93;78.01;99571.86;2232031;80;21443;-71
2021/09/03 00:16:38;;;;;;;24.63;7.50;;;;;;;8.84;77.25;99573.58;2232046;80;20963;-71
2021/09/03 00:19:39;;;;;;;24.72;8.50;;;;;;;8.75;77.61;99575.25;2231931;80;21007;-71
2021/09/03 00:22:41;;;;;;;26.35;8.30;;;;;;;8.67;78.04;99573.80;2232294;80;20991;-71
2021/09/03 00:25:42;;;;;;;27.35;9.58;;;;;;;8.66;78.37;99576.05;2232043;79;20941;-71
2021/09/03 00:28:44;;;;;;;23.75;8.33;;;;;;;8.64;78.20;99567.39;2232449;80;20983;-70
2021/09/03 00:31:45;;;;;;;24.63;7.95;;;;;;;8.62;78.59;99564.44;2231766;80;21062;-72
2021/09/03 00:34:46;;;;;;;26.68;8.38;;;;;;;8.63;78.75;99560.48;2231998;80;21491;-72
2021/09/03 00:37:48;;;;;;;22.98;7.33;;;;;;;8.65;78.64;99557.80;2232291;80;21011;-71
2021/09/03 00:40:49;;;;;;;25.62;7.97;;;;;;;8.66;78.16;99555.55;2231863;80;21479;-69
2021/09/03 00:43:51;;;;;;;26.68;10.70;;;;;;;8.61;77.86;99556.22;2232175;79;20921;-69
2021/09/03 00:46:52;;;;;;;26.20;8.83;;;;;;;8.54;77.98;99558.23;2231989;80;20964;-70
2021/09/03 00:49:54;;;;;;;27.50;11.70;;;;;;;8.48;78.24;99550.64;2231871;80;21092;-72
2021/09/03 00:52:55;;;;;;;28.35;10.78;;;;;;;8.42;78.42;99550.84;2231967;80;21010;-71
2021/09/03 00:55:57;;;;;;;19.02;6.15;;;;;;;8.42;78.73;99549.09;2231965;80;21502;-68
2021/09/03 00:58:58;;;;;;;19.25;5.95;;;;;;;8.37;78.35;99547.11;2231855;80;21019;-71
2021/09/03 01:01:59;;;;;;;27.10;6.55;;;;;;;8.21;78.09;99550.80;2231967;80;20991;-69
2021/09/03 01:05:01;;;;;;;20.17;5.95;;;;;;;8.14;78.31;99550.18;2232146;80;20948;-72
2021/09/03 01:08:02;;;;;;;19.95;5.47;;;;;;;8.08;78.52;99553.52;2232294;80;20952;-72
2021/09/03 01:11:05;;;;;;;21.62;6.70;;;;;;;7.99;78.63;99548.19;2231757;80;21105;-71
2021/09/03 01:14:06;;;;;;;24.27;8.03;;;;;;;7.92;78.92;99547.56;2231668;80;20992;-68
2021/09/03 01:17:08;;;;;;;32.38;12.10;;;;;;;8.00;79.29;99550.34;2232400;80;20972;-70
2021/09/03 01:20:09;;;;;;;26.23;9.65;;;;;;;8.07;79.05;99535.66;2231892;80;21042;-71
2021/09/03 01:23:10;;;;;;;25.10;9.08;;;;;;;8.09;78.76;99535.16;2231999;80;21502;-71
2021/09/03 01:26:12;;;;;;;27.85;8.80;;;;;;;8.09;78.51;99538.23;2232140;79;20964;-68
2021/09/03 01:29:14;;;;;;;26.05;8.88;;;;;;;8.06;78.65;99530.49;2232197;79;21020;-71
2021/09/03 01:32:15;;;;;;;28.73;8.30;;;;;;;8.06;78.80;99529.19;2232057;80;20969;-68
2021/09/03 01:35:17;;;;;;;24.40;7.05;;;;;;;8.01;78.44;99519.39;2232182;80;21479;-70
2021/09/03 01:38:18;;;;;;;22.82;8.03;;;;;;;8.04;78.41;99517.95;2232051;80;20959;-72
2021/09/03 01:41:20;;;;;;;22.70;7.60;;;;;;;8.01;78.63;99525.45;2231811;80;21043;-68
2021/09/03 01:44:21;;;;;;;23.52;8.15;;;;;;;8.04;78.48;99524.48;2232079;80;20996;-70
2021/09/03 01:47:22;;;;;;;23.32;7.85;;;;;;;7.96;78.09;99523.03;2231991;79;20972;-72
2021/09/03 01:50:24;;;;;;;26.40;8.03;;;;;;;7.92;78.68;99517.99;2231853;80;21784;-68
2021/09/03 01:53:25;;;;;;;30.23;9.00;;;;;;;7.95;78.69;99515.26;2232063;80;21427;-70
2021/09/03 01:56:27;;;;;;;24.45;8.58;;;;;;;8.03;78.77;99516.25;2231941;79;21059;-71
2021/09/03 01:59:28;;;;;;;23.62;7.65;;;;;;;7.94;78.33;99506.58;2232140;80;21511;-68
2021/09/03 02:02:30;;;;;;;26.13;7.20;;;;;;;7.96;78.32;99513.89;2232196;80;21008;-71
2021/09/03 02:05:31;;;;;;;22.98;7.72;;;;;;;7.95;78.63;99508.26;2231904;80;21518;-70
2021/09/03 02:08:33;;;;;;;22.70;8.43;;;;;;;7.85;78.26;99508.69;2232021;80;20994;-70
2021/09/03 02:11:34;;;;;;;21.23;7.78;;;;;;;7.75;78.47;99505.12;2231875;80;20952;-70
2021/09/03 02:14:36;;;;;;;24.20;8.43;;;;;;;7.76;78.45;99506.83;2231987;80;20929;-70
2021/09/03 02:17:37;;;;;;;24.02;7.75;;;;;;;7.72;78.61;99501.78;2231909;80;21007;-69
2021/09/03 02:20:38;;;;;;;22.75;7.45;;;;;;;7.73;78.85;99493.89;2231959;80;20972;-71
2021/09/03 02:23:40;;;;;;;24.35;7.92;;;;;;;7.75;78.71;99491.22;2231752;80;21048;-70
2021/09/03 02:26:42;;;;;;;24.53;7.83;;;;;;;7.72;78.50;99483.04;2232196;80;21538;-71
2021/09/03 02:29:43;;;;;;;20.90;7.10;;;;;;;7.68;78.50;99485.38;2231852;80;21182;-72
2021/09/03 02:32:44;;;;;;;28.23;8.60;;;;;;;7.61;78.37;99483.91;2231867;80;20972;-69
2021/09/03 02:35:46;;;;;;;25.60;9.53;;;;;;;7.57;78.70;99482.32;2232150;79;20929;-68
2021/09/03 02:38:47;;;;;;;29.82;11.73;;;;;;;7.54;78.86;99479.83;2232134;80;20979;-68
2021/09/03 02:41:49;;;;;;;26.77;9.10;;;;;;;7.45;78.76;99484.48;2231976;80;20960;-68
2021/09/03 02:44:50;;;;;;;23.50;7.30;;;;;;;7.39;78.60;99487.80;2231895;80;21000;-69
2021/09/03 02:47:51;;;;;;;26.65;8.20;;;;;;;7.36;78.66;99485.30;2231858;80;21478;-70
2021/09/03 02:50:53;;;;;;;27.73;8.78;;;;;;;7.35;78.96;99481.83;2231811;80;21091;-69
2021/09/03 02:53:54;;;;;;;28.77;9.55;;;;;;;7.37;78.86;99480.02;2231860;80;21003;-68
2021/09/03 02:56:56;;;;;;;23.10;7.70;;;;;;;7.40;78.94;99475.15;2231704;79;21581;-68
2021/09/03 02:59:58;;;;;;;26.68;8.38;;;;;;;7.36;78.60;99467.03;2231921;80;20977;-68
2021/09/03 03:02:59;;;;;;;20.87;7.27;;;;;;;7.32;78.85;99473.28;2231734;80;20997;-71
2021/09/03 03:06:01;;;;;;;24.77;7.45;;;;;;;7.30;78.80;99472.03;2231978;80;21015;-69
2021/09/03 03:09:02;;;;;;;22.42;7.75;;;;;;;7.26;78.74;99473.88;2231858;80;20972;-70
2021/09/03 03:12:04;;;;;;;24.45;8.28;;;;;;;7.22;78.74;99463.16;2231925;80;21047;-69
2021/09/03 03:15:06;;;;;;;27.93;8.75;;;;;;;7.16;78.89;99461.25;2231777;80;21039;-68
2021/09/03 03:18:07;;;;;;;23.30;7.10;;;;;;;7.11;78.90;99457.05;2232150;80;20976;-70
2021/09/03 03:21:09;;;;;;;23.27;7.62;;;;;;;7.08;78.75;99461.52;2231702;80;21058;-71
2021/09/03 03:24:10;;;;;;;22.20;7.58;;;;;;;7.03;78.95;99458.24;2231822;80;21466;-70
2021/09/03 03:27:12;;;;;;;26.50;8.28;;;;;;;7.01;79.09;99449.17;2231878;80;20998;-69
2021/09/03 03:30:13;;;;;;;22.62;7.62;;;;;;;7.02;79.32;99448.70;2231760;80;21498;-72
2021/09/03 03:33:14;;;;;;;28.85;8.58;;;;;;;7.07;79.55;99445.02;2231929;80;20996;-71
2021/09/03 03:36:16;;;;;;;25.32;7.92;;;;;;;7.15;79.18;99449.11;2231832;80;20975;-71
2021/09/03 03:39:17;;;;;;;26.75;7.78;;;;;;;7.14;79.05;99449.57;2231706;80;20971;-71
2021/09/03 03:42:19;;;;;;;27.80;8.75;;;;;;;7.13;78.95;99441.34;2231770;80;20951;-71
2021/09/03 03:45:20;;;;;;;36.40;14.70;;;;;;;7.13;79.02;99441.80;2232067;80;20967;-71
2021/09/03 03:48:23;;;;;;;26.65;9.18;;;;;;;7.11;78.73;99445.74;2231527;80;21011;-70
2021/09/03 03:51:24;;;;;;;;;;;;;;;7.08;78.91;99444.13;2234608;80;20956;-71
2021/09/03 03:54:26;;;;;;;36.90;11.28;;;;;;;7.06;78.71;99438.56;2231841;80;20099;-71
2021/09/03 03:57:27;;;;;;;29.45;9.08;;;;;;;6.98;78.88;99438.82;2232183;79;21000;-71
2021/09/03 04:00:28;;;;;;;24.35;8.10;;;;;;;6.97;78.83;99440.18;2231742;80;20975;-72
2021/09/03 04:03:30;;;;;;;24.80;7.62;;;;;;;6.93;78.76;99433.78;2231809;80;21515;-70
2021/09/03 04:06:31;;;;;;;22.87;7.03;;;;;;;6.89;78.74;99436.09;2232104;80;21055;-71
2021/09/03 04:09:33;;;;;;;23.25;7.47;;;;;;;6.86;78.90;99436.67;2231806;80;21499;-69
2021/09/03 04:12:35;;;;;;;30.00;9.18;;;;;;;6.88;78.97;99437.45;2231760;79;21023;-71
2021/09/03 04:15:37;;;;;;;36.40;11.57;;;;;;;6.92;79.17;99435.14;2232218;80;21541;-67
2021/09/03 04:18:40;;;;;;;30.52;10.40;;;;;;;6.99;78.96;99434.48;2232145;80;20964;-71
2021/09/03 04:21:41;;;;;;;32.93;11.03;;;;;;;7.05;78.89;99435.55;2232102;80;20933;-71
2021/09/03 04:24:43;;;;;;;25.12;7.72;;;;;;;7.11;78.66;99428.35;2232140;80;21011;-70
2021/09/03 04:27:44;;;;;;;22.65;7.35;;;;;;;7.15;78.83;99428.23;2231992;80;21543;-70
2021/09/03 04:30:46;;;;;;;21.25;6.37;;;;;;;7.21;78.73;99428.00;2232233;80;21004;-71
2021/09/03 04:33:47;;;;;;;24.35;7.28;;;;;;;7.31;78.77;99429.81;2231967;80;21505;-70
2021/09/03 04:36:48;;;;;;;22.45;7.35;;;;;;;7.42;78.80;99425.03;2232124;80;20968;-71
2021/09/03 04:39:50;;;;;;;21.48;6.85;;;;;;;7.54;78.74;99425.01;2231952;79;20956;-71
2021/09/03 04:42:51;;;;;;;25.25;7.45;;;;;;;7.66;78.60;99417.14;2231933;80;20980;-72
2021/09/03 04:45:53;;;;;;;21.65;7.10;;;;;;;7.85;78.64;99419.42;2232031;79;21007;-69
2021/09/03 04:48:54;;;;;;;23.40;7.12;;;;;;;8.06;78.69;99420.76;2231768;80;21019;-71
2021/09/03 04:51:56;;;;;;;29.30;8.20;;;;;;;8.20;78.48;99420.20;2231956;80;20963;-70
2021/09/03 04:54:57;;;;;;;23.52;7.37;;;;;;;8.33;78.21;99417.45;2232019;80;21495;-69
2021/09/03 04:57:59;;;;;;;23.15;7.47;;;;;;;8.44;77.88;99417.88;2231960;79;21027;-70
2021/09/03 05:01:00;;;;;;;23.70;7.30;;;;;;;8.64;77.63;99414.87;2231922;80;20968;-71
2021/09/03 05:04:01;;;;;;;23.02;7.25;;;;;;;8.80;77.58;99415.89;2232131;80;20968;-69
2021/09/03 05:07:03;;;;;;;23.22;7.00;;;;;;;8.99;78.06;99412.02;2231961;80;20956;-71
2021/09/03 05:10:04;;;;;;;22.70;7.55;;;;;;;9.25;77.92;99417.83;2231716;80;21034;-71
2021/09/03 05:13:06;;;;;;;24.35;7.85;;;;;;;9.62;77.85;99412.15;2231802;80;21069;-68
2021/09/03 05:16:08;;;;;;;29.87;8.80;;;;;;;9.86;77.32;99409.28;2231653;80;21122;-69
2021/09/03 05:19:09;;;;;;;28.83;9.53;;;;;;;9.97;77.46;99403.50;2231910;80;21020;-71
2021/09/03 05:22:11;;;;;;;32.08;10.05;;;;;;;10.33;77.64;99407.83;2232136;80;21004;-72
2021/09/03 05:25:14;;;;;;;31.02;9.85;;;;;;;10.63;76.98;99401.97;2232045;80;20964;-69
2021/09/03 05:28:15;;;;;;;27.50;8.40;;;;;;;10.83;77.36;99403.55;2231950;80;21471;-71
2021/09/03 05:31:17;;;;;;;33.08;12.93;;;;;;;11.08;76.98;99393.92;2232098;80;21018;-72
2021/09/03 05:34:19;;;;;;;34.55;12.63;;;;;;;11.32;77.40;99396.12;2232233;79;21435;-68
2021/09/03 05:37:20;;;;;;;30.70;11.22;;;;;;;11.60;77.62;99394.97;2232053;80;21048;-68
2021/09/03 05:40:22;;;;;;;32.23;10.75;;;;;;;11.91;77.52;99394.55;2231898;79;21011;-72
2021/09/03 05:43:24;;;;;;;;;;;;;;;12.19;77.91;99392.98;2234739;80;21014;-70
2021/09/03 05:46:25;;;;;;;28.25;10.90;;;;;;;12.54;78.24;99388.73;2231952;80;20410;-71
2021/09/03 05:49:27;;;;;;;29.53;11.03;;;;;;;12.81;78.07;99384.90;2232176;80;20975;-71
2021/09/03 05:52:28;;;;;;;27.90;10.70;;;;;;;13.08;78.25;99385.42;2232200;80;21016;-69
2021/09/03 05:55:30;;;;;;;30.00;12.70;;;;;;;13.22;78.54;99396.42;2232420;80;20964;-70
2021/09/03 05:58:31;;;;;;;30.57;12.57;;;;;;;13.34;79.23;99389.53;2234531;80;20968;-69
2021/09/03 06:01:33;;;;;;;29.63;11.87;;;;;;;13.48;79.30;99390.84;2235782;79;20948;-68
2021/09/03 06:04:34;;;;;;;28.33;11.87;;;;;;;13.59;78.74;99378.76;2235309;80;21051;-69
2021/09/03 06:07:35;;;;;;;29.90;12.53;;;;;;;13.64;78.68;99381.47;2235643;80;21550;-68
2021/09/03 06:10:37;;;;;;;29.87;12.97;;;;;;;13.65;79.08;99383.17;2235737;80;20951;-69
2021/09/03 06:13:39;;;;;;;28.45;11.68;;;;;;;13.62;78.84;99382.51;2235783;80;21044;-69
2021/09/03 06:16:40;;;;;;;30.67;13.07;;;;;;;13.69;79.12;99378.53;2235408;80;20944;-70
2021/09/03 06:19:41;;;;;;;29.63;12.17;;;;;;;13.85;79.79;99381.87;2235535;80;21035;-71
2021/09/03 06:22:43;;;;;;;31.40;12.20;;;;;;;14.00;79.65;99384.44;2235574;80;21558;-72
2021/09/03 06:25:44;;;;;;;29.47;12.17;;;;;;;14.29;78.77;99383.80;2235626;80;21035;-69
2021/09/03 06:28:46;;;;;;;30.77;12.67;;;;;;;14.40;78.38;99391.00;2235627;80;21578;-71
2021/09/03 06:31:47;;;;;;;28.57;12.03;;;;;;;14.56;78.37;99381.07;2235573;80;21015;-68
2021/09/03 06:34:49;;;;;;;30.13;12.63;;;;;;;14.77;78.76;99381.91;2235629;80;21043;-68
2021/09/03 06:37:50;;;;;;;27.57;12.30;;;;;;;15.17;78.56;99376.92;2235783;80;20971;-68
2021/09/03 06:40:52;;;;;;;29.60;12.30;;;;;;;15.49;78.07;99375.94;2235617;80;21044;-70
2021/09/03 06:43:53;;;;;;;29.03;11.57;;;;;;;15.75;77.05;99366.08;2235639;80;21466;-67
2021/09/03 06:46:54;;;;;;;27.77;11.20;;;;;;;15.74;75.46;99368.35;2235628;80;21028;-67
2021/09/03 06:49:56;;;;;;;27.93;11.87;;;;;;;15.81;77.31;99372.75;2235571;80;21546;-68
2021/09/03 06:52:57;;;;;;;28.43;11.20;;;;;;;15.94;76.18;99370.88;2235718;80;20971;-68
2021/09/03 06:55:59;;;;;;;25.60;10.50;;;;;;;16.02;75.14;99366.81;2235640;79;20949;-68
2021/09/03 06:59:00;;;;;;;27.23;11.33;;;;;;;15.99;74.06;99367.91;2235188;79;21397;-67
2021/09/03 07:02:02;;;;;;;27.25;11.45;;;;;;;16.00;76.00;99353.70;2235521;80;21010;-68
2021/09/03 07:05:03;;;;;;;26.33;11.37;;;;;;;16.13;73.89;99360.72;2235604;80;21578;-68
2021/09/03 07:08:05;;;;;;;26.80;11.55;;;;;;;16.31;75.71;99351.39;2235505;80;21205;-68
2021/09/03 07:11:06;;;;;;;25.63;10.73;;;;;;;16.55;75.06;99346.02;2235561;80;21059;-72
2021/09/03 07:14:08;;;;;;;29.52;11.88;;;;;;;16.77;74.24;99352.28;2235614;80;20967;-69
2021/09/03 07:17:09;;;;;;;26.50;10.58;;;;;;;16.94;74.41;99343.88;2235458;80;20999;-69
2021/09/03 07:20:12;;;;;;;26.02;10.32;;;;;;;17.05;72.29;99345.68;2235633;80;20983;-68
2021/09/03 07:23:13;;;;;;;25.45;10.48;;;;;;;17.08;70.95;99351.20;2235780;80;20963;-68
2021/09/03 07:26:15;;;;;;;27.73;10.20;;;;;;;16.96;71.28;99353.85;2235541;80;21039;-72
2021/09/03 07:29:16;;;;;;;26.33;10.32;;;;;;;17.01;70.99;99351.33;2235647;80;21010;-68
2021/09/03 07:32:18;;;;;;;28.38;10.72;;;;;;;16.88;70.23;99353.64;2235129;80;21083;-71
2021/09/03 07:35:19;;;;;;;25.60;10.30;;;;;;;17.09;71.53;99346.27;2235602;80;21497;-68
2021/09/03 07:38:21;;;;;;;25.90;9.88;;;;;;;17.14;70.93;99344.10;2235485;80;20960;-68
2021/09/03 07:41:23;;;;;;;25.80;8.60;;;;;;;17.44;71.48;99345.22;2235251;80;20967;-68
2021/09/03 07:44:26;;;;;;;22.75;8.00;;;;;;;17.66;71.74;99341.17;2235448;80;21039;-69
2021/09/03 07:47:28;;;;;;;22.15;8.25;;;;;;;17.71;70.06;99338.13;2235584;79;20964;-69
2021/09/03 07:50:29;;;;;;;22.02;8.00;;;;;;;17.71;67.98;99338.13;2235614;80;20988;-70
2021/09/03 07:53:30;;;;;;;22.55;8.53;;;;;;;17.68;68.02;99341.05;2235558;80;21518;-68
2021/09/03 07:56:32;;;;;;;20.25;6.58;;;;;;;17.81;70.05;99339.08;2235647;80;21479;-69
2021/09/03 07:59:33;;;;;;;19.82;6.53;;;;;;;18.05;64.86;99340.67;2232483;79;20977;-69
2021/09/03 08:02:35;;;;;;;19.02;5.92;;;;;;;18.02;63.78;99340.94;2231812;80;21091;-71
2021/09/03 08:05:36;;;;;;;19.15;5.50;;;;;;;18.11;63.34;99349.94;2232386;80;20979;-69
2021/09/03 08:08:38;;;;;;;20.32;5.70;;;;;;;18.19;64.34;99346.16;2232154;80;20980;-69
2021/09/03 08:11:39;;;;;;;18.62;5.78;;;;;;;18.30;63.79;99337.27;2232071;80;20968;-68
2021/09/03 08:14:41;;;;;;;20.02;5.78;;;;;;;18.36;64.00;99334.11;2232184;80;20976;-67
2021/09/03 08:17:42;;;;;;;19.98;5.25;;;;;;;18.43;63.56;99331.75;2231777;80;21566;-68
2021/09/03 08:20:45;;;;;;;19.82;5.90;;;;;;;18.60;61.23;99329.80;2232150;80;21035;-68
2021/09/03 08:23:47;;;;;;;18.60;5.50;;;;;;;18.78;62.83;99330.53;2232142;80;20941;-69
2021/09/03 08:26:48;;;;;;;17.85;5.05;;;;;;;18.86;61.12;99342.20;2231729;80;21080;-70
2021/09/03 08:29:50;;;;;;;18.32;4.80;;;;;;;18.91;62.30;99331.66;2232161;80;20972;-72
2021/09/03 08:32:51;;;;;;;18.02;5.10;;;;;;;18.91;56.96;99333.82;2232167;79;20928;-72
2021/09/03 08:35:53;;;;;;;16.50;4.67;;;;;;;19.11;62.29;99334.72;2232156;79;20980;-68
2021/09/03 08:38:54;;;;;;;16.85;4.60;;;;;;;19.25;59.48;99332.17;2232099;79;20996;-72
2021/09/03 08:41:56;;;;;;;14.05;3.80;;;;;;;19.39;58.65;99319.81;2232170;79;20968;-72
2021/09/03 08:44:57;;;;;;;14.95;3.95;;;;;;;19.44;58.07;99311.41;2232083;80;20948;-72
2021/09/03 08:47:59;;;;;;;16.25;4.00;;;;;;;19.56;57.54;99320.92;2232066;80;21016;-72
2021/09/03 08:51:01;;;;;;;17.67;4.10;;;;;;;19.61;54.93;99321.86;2232067;80;20980;-69
2021/09/03 08:54:02;;;;;;;15.20;3.60;;;;;;;19.58;55.12;99316.78;2232251;80;20957;-72
2021/09/03 08:57:03;;;;;;;13.28;3.85;;;;;;;19.64;53.26;99310.93;2232070;79;20967;-69
2021/09/03 09:00:05;;;;;;;17.85;3.92;;;;;;;19.62;52.49;99310.71;2232003;80;21506;-72
2021/09/03 09:03:06;;;;;;;13.90;3.95;;;;;;;19.67;53.90;99307.98;2232095;80;20937;-72
2021/09/03 09:06:08;;;;;;;15.00;4.05;;;;;;;19.83;52.99;99308.77;2231881;80;20995;-70
2021/09/03 09:09:09;;;;;;;16.32;3.90;;;;;;;19.96;54.80;99296.50;2232182;80;21011;-71
2021/09/03 09:12:11;;;;;;;15.43;4.20;;;;;;;20.21;55.46;99291.55;2232119;80;20979;-70
2021/09/03 09:15:14;;;;;;;12.53;3.65;;;;;;;20.38;52.50;99287.30;2231893;80;21522;-74
2021/09/03 09:18:15;;;;;;;14.10;3.67;;;;;;;20.40;53.56;99274.19;2231926;80;20996;-70
2021/09/03 09:21:17;;;;;;;11.53;3.50;;;;;;;20.27;52.62;99276.34;2232015;80;20996;-71
2021/09/03 09:24:18;;;;;;;13.05;3.47;;;;;;;20.28;51.66;99271.84;2232121;80;21018;-71
2021/09/03 09:27:19;;;;;;;13.58;3.52;;;;;;;20.43;52.77;99281.05;2232050;80;21466;-74
2021/09/03 09:30:21;;;;;;;11.08;3.20;;;;;;;20.55;50.35;99285.70;2232161;80;20991;-70
2021/09/03 09:33:23;;;;;;;13.13;3.40;;;;;;;20.59;50.51;99276.42;2232094;80;20991;-69
2021/09/03 09:36:25;;;;;;;12.30;3.40;;;;;;;20.72;53.51;99262.30;2232066;80;21018;-70
2021/09/03 09:39:26;;;;;;;12.25;3.37;;;;;;;20.85;50.42;99269.94;2232034;80;21039;-68
2021/09/03 09:42:28;;;;;;;14.60;3.50;;;;;;;20.93;51.23;99263.85;2231936;80;21542;-73
2021/09/03 09:45:29;;;;;;;11.70;3.58;;;;;;;20.94;51.35;99266.88;2232122;80;21012;-74
2021/09/03 09:48:31;;;;;;;9.95;3.12;;;;;;;21.03;48.33;99255.32;2232074;80;21487;-72
2021/09/03 09:51:32;;;;;;;11.28;3.47;;;;;;;21.07;48.88;99255.34;2232019;80;20972;-69
2021/09/03 09:54:34;;;;;;;10.78;3.20;;;;;;;21.02;48.83;99259.44;2232100;80;21008;-68
2021/09/03 09:57:36;;;;;;;9.85;3.10;;;;;;;21.02;48.39;99259.44;2232357;79;20975;-72
2021/09/03 10:00:37;;;;;;;11.05;3.30;;;;;;;21.02;47.82;99246.97;2234990;79;21013;-69
2021/09/03 10:03:38;;;;;;;10.93;3.22;;;;;;;21.22;47.99;99238.34;2235545;80;21020;-72
2021/09/03 10:06:40;;;;;;;7.35;2.80;;;;;;;21.30;45.87;99240.23;2235669;80;20925;-71
2021/09/03 10:09:41;;;;;;;9.73;3.05;;;;;;;21.21;44.69;99237.16;2235406;80;21548;-69
2021/09/03 10:12:43;;;;;;;13.30;3.35;;;;;;;21.21;45.61;99229.16;2235739;80;20956;-73
2021/09/03 10:15:44;;;;;;;8.55;3.02;;;;;;;21.23;46.78;99236.02;2235277;80;20992;-71
2021/09/03 10:18:46;;;;;;;11.43;3.33;;;;;;;21.41;44.05;99219.16;2235573;80;20960;-71
2021/09/03 10:21:47;;;;;;;9.15;3.33;;;;;;;21.35;45.35;99227.77;2235497;80;20999;-69
2021/09/03 10:24:48;;;;;;;11.10;3.20;;;;;;;21.38;45.79;99216.30;2235543;80;21510;-70
2021/09/03 10:27:50;;;;;;;17.10;4.42;;;;;;;21.50;45.47;99220.07;2235743;80;20999;-73
2021/09/03 10:30:51;;;;;;;12.88;3.60;;;;;;;21.66;45.85;99218.05;2235461;80;20993;-72
2021/09/03 10:33:53;;;;;;;13.28;3.77;;;;;;;21.59;44.39;99224.50;2235670;80;20968;-69
2021/09/03 10:36:54;;;;;;;13.00;4.05;;;;;;;21.61;47.23;99220.69;2235499;80;21035;-70
2021/09/03 10:39:56;;;;;;;15.08;4.33;;;;;;;21.82;47.30;99223.50;2235345;80;21612;-69
2021/09/03 10:42:59;;;;;;;12.10;3.83;;;;;;;21.95;46.45;99214.59;2235538;80;21019;-71
2021/09/03 10:46:00;;;;;;;17.10;4.62;;;;;;;21.95;46.46;99220.41;2235508;80;21476;-72
2021/09/03 10:49:02;;;;;;;13.93;4.03;;;;;;;22.05;46.63;99234.52;2235491;79;21020;-71
2021/09/03 10:52:03;;;;;;;11.50;3.80;;;;;;;21.90;45.71;99216.89;2235533;80;21498;-73
2021/09/03 10:55:05;;;;;;;13.03;4.00;;;;;;;21.92;46.95;99208.72;2235586;80;21011;-68
2021/09/03 10:58:06;;;;;;;12.13;3.80;;;;;;;21.38;46.87;99205.63;2235485;80;20964;-72
2021/09/03 11:01:08;;;;;;;17.55;4.20;;;;;;;21.00;47.60;99200.11;2233443;79;21027;-69
2021/09/03 11:07:12;;;;;;;15.15;4.37;;;;;;;20.72;49.84;99189.50;2212408;80;21012;-72
2021/09/03 11:10:14;;;;;;;12.45;4.03;;;;;;;20.83;50.33;99182.62;2232087;80;21862;-73
2021/09/03 11:13:15;;;;;;;12.15;3.87;;;;;;;20.72;49.66;99183.67;2231812;80;21019;-69
2021/09/03 11:16:17;;;;;;;15.08;4.40;;;;;;;20.88;50.80;99178.17;2232083;80;20992;-71
2021/09/03 11:19:18;;;;;;;14.50;4.10;;;;;;;21.26;48.54;99178.84;2232045;80;21522;-73
2021/09/03 11:22:20;;;;;;;12.75;4.10;;;;;;;21.02;48.34;99177.64;2232159;80;21002;-69
2021/09/03 11:25:22;;;;;;;18.52;4.78;;;;;;;20.68;50.71;99177.45;2231436;80;21027;-71
2021/09/03 11:28:23;;;;;;;15.35;4.10;;;;;;;20.68;50.71;99177.45;2232056;80;20959;-69
2021/09/03 11:31:25;;;;;;;13.03;4.03;;;;;;;20.89;49.79;99173.19;2231892;80;20979;-74
2021/09/03 11:34:26;;;;;;;15.72;4.62;;;;;;;20.64;50.72;99173.38;2231914;80;21011;-72
2021/09/03 11:37:28;;;;;;;16.73;4.42;;;;;;;20.52;51.77;99167.43;2231984;80;21012;-69
2021/09/03 11:40:30;;;;;;;15.75;4.30;;;;;;;20.86;51.75;99159.66;2231888;80;21022;-68
2021/09/03 11:43:32;;;;;;;15.90;4.67;;;;;;;21.29;53.04;99159.38;2231804;80;20941;-72
2021/09/03 11:46:33;;;;;;;14.07;4.37;;;;;;;21.57;52.91;99160.61;2231935;80;20975;-69
2021/09/03 11:49:35;;;;;;;19.98;5.25;;;;;;;21.58;52.16;99149.45;2231921;80;21044;-71
2021/09/03 11:52:36;;;;;;;18.10;4.72;;;;;;;21.60;50.59;99154.95;2232101;79;20936;-74
2021/09/03 11:55:38;;;;;;;17.98;4.55;;;;;;;21.37;50.69;99154.59;2231606;80;21003;-72
2021/09/03 11:58:39;;;;;;;16.00;4.47;;;;;;;20.80;50.30;99154.09;2232037;80;20976;-70
2021/09/03 12:01:41;;;;;;;16.77;4.35;;;;;;;20.41;50.59;99159.98;2241629;79;20976;-72
2021/09/03 12:04:42;;;;;;;15.93;4.60;;;;;;;20.31;50.77;99146.36;2245441;79;20984;-73
2021/09/03 12:07:44;;;;;;;17.48;4.92;;;;;;;20.50;51.59;99152.06;2245609;79;21514;-69
2021/09/03 12:10:45;;;;;;;15.40;4.15;;;;;;;20.33;52.17;99145.23;2245564;79;21075;-70
2021/09/03 12:13:47;;;;;;;15.23;4.28;;;;;;;20.90;51.87;99134.86;2245635;79;21032;-70
2021/09/03 12:16:48;;;;;;;14.07;4.35;;;;;;;21.40;47.80;99138.27;2245303;79;21001;-70
2021/09/03 12:19:50;;;;;;;16.75;4.55;;;;;;;21.89;48.25;99119.08;2245531;79;21047;-70
2021/09/03 12:22:51;;;;;;;14.15;4.60;;;;;;;21.73;46.93;99128.35;2245648;79;21541;-69
2021/09/03 12:25:52;;;;;;;15.65;5.00;;;;;;;22.05;47.67;99121.02;2245764;79;21087;-73
2021/09/03 12:28:54;;;;;;;14.10;4.37;;;;;;;22.19;48.08;99116.05;2245573;79;21142;-69
2021/09/03 12:31:56;;;;;;;12.03;4.20;;;;;;;22.41;47.59;99104.81;2245750;79;21028;-69
2021/09/03 12:34:57;;;;;;;19.05;4.75;;;;;;;22.41;47.79;99099.47;2245623;79;21054;-72
2021/09/03 12:37:58;;;;;;;15.23;4.55;;;;;;;22.22;48.19;99103.19;2245804;79;21500;-71
2021/09/03 12:41:00;;;;;;;14.87;4.55;;;;;;;21.91;47.37;99101.09;2245726;79;21052;-71
2021/09/03 12:44:02;;;;;;;15.15;4.53;;;;;;;22.25;47.57;99090.84;2246186;79;21031;-73
2021/09/03 12:47:04;;;;;;;18.35;5.42;;;;;;;22.05;47.34;99074.76;2245674;79;21091;-68
2021/09/03 12:50:05;;;;;;;20.00;4.87;;;;;;;22.26;47.21;99089.03;2245683;79;21526;-70
2021/09/03 12:53:06;;;;;;;15.48;4.80;;;;;;;22.62;46.61;99084.80;2245733;79;21048;-74
2021/09/03 12:56:08;;;;;;;13.15;4.15;;;;;;;22.86;45.08;99082.66;2245354;79;21106;-70
2021/09/03 12:59:10;;;;;;;14.85;4.37;;;;;;;23.22;45.16;99074.31;2245664;79;21538;-72
2021/09/03 13:02:11;;;;;;;16.90;4.95;;;;;;;22.86;44.05;99080.45;2234451;79;21071;-70
2021/09/03 13:05:12;;;;;;;17.40;5.33;;;;;;;22.42;44.52;99083.75;2232150;80;20980;-75
2021/09/03 13:08:14;;;;;;;16.85;5.12;;;;;;;22.51;47.24;99074.41;2232166;80;21000;-71
2021/09/03 13:11:15;;;;;;;16.90;4.83;;;;;;;22.56;45.75;99081.45;2232053;80;20933;-69
2021/09/03 13:14:17;;;;;;;15.65;4.87;;;;;;;22.58;46.13;99070.09;2232210;80;21490;-71
2021/09/03 13:17:19;;;;;;;17.40;5.50;;;;;;;22.90;49.90;99068.43;2232028;80;21018;-68
2021/09/03 13:20:20;;;;;;;15.08;4.97;;;;;;;23.26;47.83;99068.95;2231680;80;21537;-72
2021/09/03 13:23:22;;;;;;;18.02;4.70;;;;;;;23.66;47.55;99058.30;2232077;80;20999;-69
2021/09/03 13:26:23;;;;;;;14.40;4.65;;;;;;;23.81;43.53;99061.13;2232078;80;20984;-73
2021/09/03 13:29:25;;;;;;;15.30;4.97;;;;;;;23.76;41.42;99056.29;2232140;80;20983;-69
2021/09/03 13:32:26;;;;;;;17.07;4.97;;;;;;;23.53;43.34;99063.72;2232083;79;21007;-72
2021/09/03 13:35:28;;;;;;;16.30;5.10;;;;;;;23.48;45.04;99052.67;2232045;80;21483;-69
2021/09/03 13:38:29;;;;;;;16.52;5.00;;;;;;;23.67;43.63;99061.33;2232052;79;20965;-68
2021/09/03 13:41:31;;;;;;;16.25;4.80;;;;;;;23.56;43.69;99057.19;2231999;80;21503;-66
2021/09/03 13:44:32;;;;;;;;;;;;;;;23.10;43.46;99053.73;2234609;80;21000;-70
2021/09/03 13:47:34;;;;;;;15.78;5.03;;;;;;;22.87;45.50;99046.89;2228383;80;20194;-68
2021/09/03 13:50:37;;;;;;;15.88;5.00;;;;;;;23.07;45.21;99043.34;2220934;80;21462;-72
2021/09/03 13:53:39;;;;;;;16.93;4.72;;;;;;;23.01;44.52;99036.00;2227864;80;21073;-68
2021/09/03 13:56:40;;;;;;;21.62;5.70;;;;;;;23.21;44.85;99039.19;2229216;80;21036;-73
2021/09/03 13:59:42;;;;;;;15.55;4.70;;;;;;;23.40;44.79;99023.77;2231524;80;21487;-71
2021/09/03 14:02:43;;;;;;;15.10;4.70;;;;;;;23.53;41.92;99040.11;2231386;79;21020;-74
2021/09/03 14:05:45;;;;;;;16.40;5.15;;;;;;;23.57;42.69;99027.23;2229972;80;22231;-73
2021/09/03 14:08:47;;;;;;;17.55;5.10;;;;;;;23.61;41.99;99024.54;2209447;80;31852;-73